Time;durP1;ratioP1;P1;durP2;ratioP2;P2;SDS_P1;SDS_P2;PMS_P1;PMS_P2;Temp;Humidity;BMP_temperature;BMP_pressure;BME280_temperature;BME280_humidity;BME280_pressure;Samples;Min_cycle;Max_cycle;Signal;HPM_P1;HPM_P2
2022/03/29 00:00:41;;;;;;;10.30;7.20;;;;;;;;;;4941421;28;20486;-50
2022/03/29 00:03:13;;;;;;;15.30;7.03;;;;;;;;;;4939280;28;20425;-51
2022/03/29 00:05:39;;;;;;;14.20;7.73;;;;;;;;;;4972984;28;20207;-51
2022/03/29 00:08:05;;;;;;;13.13;7.87;;;;;;;;;;4946111;28;20450;-51
2022/03/29 00:10:32;;;;;;;8.30;5.73;;;;;;;;;;4973443;28;20446;-51
2022/03/29 00:12:58;;;;;;;13.00;6.57;;;;;;;;;;4945542;28;20486;-51
2022/03/29 00:15:24;;;;;;;12.87;7.10;;;;;;;;;;4938030;28;20463;-50
2022/03/29 00:17:50;;;;;;;9.00;5.83;;;;;;;;;;4938603;28;20459;-50
2022/03/29 00:20:17;;;;;;;8.37;5.67;;;;;;;;;;4946465;28;20863;-49
2022/03/29 00:22:43;;;;;;;11.17;6.60;;;;;;;;;;4942152;28;20451;-50
2022/03/29 00:25:14;;;;;;;9.77;6.47;;;;;;;;;;4946472;28;20442;-50
2022/03/29 00:27:41;;;;;;;8.63;6.20;;;;;;;;;;4938128;28;20960;-50
2022/03/29 00:30:24;;;;;;;10.47;6.17;;;;;;;;;;4934875;28;20446;-50
2022/03/29 00:32:51;;;;;;;12.27;6.67;;;;;;;;;;4947293;28;20447;-50
2022/03/29 00:35:17;;;;;;;9.90;5.90;;;;;;;;;;4947524;28;22094;-50
2022/03/29 00:37:44;;;;;;;8.67;5.70;;;;;;;;;;4951388;28;20467;-51
2022/03/29 00:40:11;;;;;;;12.53;6.23;;;;;;;;;;4942090;28;20459;-49
2022/03/29 00:42:38;;;;;;;12.87;8.33;;;;;;;;;;4962595;28;20489;-50
2022/03/29 00:45:05;;;;;;;11.27;6.63;;;;;;;;;;4946851;28;20656;-50
2022/03/29 00:47:31;;;;;;;10.50;6.70;;;;;;;;;;4946897;28;20441;-55
2022/03/29 00:49:57;;;;;;;11.40;6.93;;;;;;;;;;4948814;28;20482;-51
2022/03/29 00:52:24;;;;;;;11.17;6.63;;;;;;;;;;4947751;28;20510;-50
2022/03/29 00:54:50;;;;;;;8.43;5.57;;;;;;;;;;4949740;28;20462;-49
2022/03/29 00:57:16;;;;;;;10.63;6.17;;;;;;;;;;4950340;28;20490;-51
2022/03/29 00:59:43;;;;;;;13.17;6.57;;;;;;;;;;4947528;28;20432;-51
2022/03/29 01:02:09;;;;;;;10.50;6.00;;;;;;;;;;4936935;28;20482;-50
2022/03/29 01:04:35;;;;;;;10.40;6.80;;;;;;;;;;4951348;28;20578;-50
2022/03/29 01:07:01;;;;;;;11.30;7.40;;;;;;;;;;4951672;28;20475;-50
2022/03/29 01:09:27;;;;;;;9.77;6.23;;;;;;;;;;4944384;28;20428;-50
2022/03/29 01:11:53;;;;;;;10.83;7.47;;;;;;;;;;4944071;28;20447;-50
2022/03/29 01:14:22;;;;;;;10.00;6.80;;;;;;;;;;4942192;28;20435;-51
2022/03/29 01:19:32;;;;;;;11.37;7.13;;;;;;;;;;4949174;28;20445;-52
2022/03/29 01:21:59;;;;;;;10.90;7.43;;;;;;;;;;4942968;28;21128;-52
2022/03/29 01:24:26;;;;;;;11.17;5.87;;;;;;;;;;4950509;28;20443;-51
2022/03/29 01:26:52;;;;;;;9.73;6.30;;;;;;;;;;4948820;28;20438;-52
2022/03/29 01:29:21;;;;;;;9.27;6.10;;;;;;;;;;4941842;28;20483;-50
2022/03/29 01:31:48;;;;;;;12.53;6.67;;;;;;;;;;4944867;28;20478;-51
2022/03/29 01:34:14;;;;;;;12.70;6.70;;;;;;;;;;4940138;28;20440;-51
2022/03/29 01:36:40;;;;;;;8.57;6.00;;;;;;;;;;4945359;28;20932;-51
2022/03/29 01:39:06;;;;;;;8.90;6.80;;;;;;;;;;4943289;28;20435;-51
2022/03/29 01:41:32;;;;;;;11.77;6.20;;;;;;;;;;4945517;28;20538;-51
2022/03/29 01:43:59;;;;;;;8.60;6.20;;;;;;;;;;4940147;28;20432;-50
2022/03/29 01:46:25;;;;;;;8.57;6.00;;;;;;;;;;4939628;28;21032;-50
2022/03/29 01:48:51;;;;;;;9.60;7.37;;;;;;;;;;4944260;28;20517;-50
2022/03/29 01:51:17;;;;;;;10.60;6.57;;;;;;;;;;4946846;28;20885;-51
2022/03/29 01:53:45;;;;;;;11.23;6.37;;;;;;;;;;4944356;28;20600;-51
2022/03/29 01:56:11;;;;;;;10.17;5.70;;;;;;;;;;4944320;28;20519;-51
2022/03/29 01:58:37;;;;;;;18.50;7.97;;;;;;;;;;4937841;28;20447;-50
2022/03/29 02:01:06;;;;;;;13.73;7.37;;;;;;;;;;4942673;28;20529;-52
2022/03/29 02:03:35;;;;;;;10.13;6.40;;;;;;;;;;4967831;28;20968;-50
2022/03/29 02:06:04;;;;;;;10.23;6.50;;;;;;;;;;4944502;28;20447;-50
2022/03/29 02:08:30;;;;;;;11.73;7.50;;;;;;;;;;4938358;28;20470;-49
2022/03/29 02:10:56;;;;;;;9.57;7.07;;;;;;;;;;4947962;28;20478;-50
2022/03/29 02:13:23;;;;;;;10.30;5.87;;;;;;;;;;4940712;28;20446;-50
2022/03/29 02:15:49;;;;;;;14.30;6.70;;;;;;;;;;4941620;28;20451;-50
2022/03/29 02:18:15;;;;;;;8.13;6.40;;;;;;;;;;4948824;28;20427;-50
2022/03/29 02:20:41;;;;;;;12.00;7.13;;;;;;;;;;4941137;28;20435;-50
2022/03/29 02:23:07;;;;;;;11.20;5.97;;;;;;;;;;4944053;28;20510;-50
2022/03/29 02:25:34;;;;;;;10.67;6.80;;;;;;;;;;4945884;28;20988;-51
2022/03/29 02:28:00;;;;;;;9.47;7.13;;;;;;;;;;4946095;28;20451;-50
2022/03/29 02:30:26;;;;;;;9.47;6.60;;;;;;;;;;4942263;28;20971;-50
2022/03/29 02:33:03;;;;;;;12.60;7.43;;;;;;;;;;4944436;28;20439;-50
2022/03/29 02:35:29;;;;;;;9.77;7.60;;;;;;;;;;4944982;28;20442;-50
2022/03/29 02:37:56;;;;;;;10.30;6.23;;;;;;;;;;4939011;28;20443;-51
2022/03/29 02:40:22;;;;;;;12.27;7.40;;;;;;;;;;4944251;28;20474;-49
2022/03/29 02:42:49;;;;;;;14.10;7.80;;;;;;;;;;4938826;28;20550;-50
2022/03/29 02:45:16;;;;;;;15.60;7.43;;;;;;;;;;4941348;28;20723;-51
2022/03/29 02:47:43;;;;;;;11.20;6.97;;;;;;;;;;4942368;28;20937;-50
2022/03/29 02:50:09;;;;;;;11.13;7.20;;;;;;;;;;4940384;28;20435;-50
2022/03/29 02:52:42;;;;;;;9.47;6.60;;;;;;;;;;4937524;28;20773;-50
2022/03/29 02:55:08;;;;;;;14.17;6.77;;;;;;;;;;4943316;28;20439;-48
2022/03/29 02:57:34;;;;;;;12.17;6.93;;;;;;;;;;4942504;28;20455;-49
2022/03/29 03:03:04;;;;;;;14.50;7.03;;;;;;;;;;4939593;28;20725;-51
2022/03/29 03:05:30;;;;;;;10.90;6.60;;;;;;;;;;4944002;28;20450;-50
2022/03/29 03:07:58;;;;;;;11.97;7.57;;;;;;;;;;4943128;28;20440;-51
2022/03/29 03:10:25;;;;;;;9.40;7.27;;;;;;;;;;4957089;28;20850;-52
2022/03/29 03:12:51;;;;;;;11.63;7.40;;;;;;;;;;4947382;28;20448;-50
2022/03/29 03:15:18;;;;;;;14.50;6.83;;;;;;;;;;4951047;28;20516;-50
2022/03/29 03:17:45;;;;;;;10.47;7.47;;;;;;;;;;4945454;28;20819;-50
2022/03/29 03:20:12;;;;;;;13.00;7.07;;;;;;;;;;4980044;28;20441;-51
2022/03/29 03:22:39;;;;;;;12.50;6.80;;;;;;;;;;4941869;28;20491;-50
2022/03/29 03:25:05;;;;;;;11.70;7.17;;;;;;;;;;4945937;28;21436;-50
2022/03/29 03:27:31;;;;;;;16.20;7.93;;;;;;;;;;4949599;28;20451;-50
2022/03/29 03:30:00;;;;;;;9.23;6.60;;;;;;;;;;4946533;28;20453;-53
2022/03/29 03:32:26;;;;;;;9.43;6.93;;;;;;;;;;4973085;28;20542;-51
2022/03/29 03:34:52;;;;;;;10.13;8.30;;;;;;;;;;4946278;28;20447;-51
2022/03/29 03:37:18;;;;;;;13.00;7.43;;;;;;;;;;4943271;28;20964;-52
2022/03/29 03:39:44;;;;;;;13.93;6.87;;;;;;;;;;4942938;28;20513;-49
2022/03/29 03:42:10;;;;;;;10.53;7.97;;;;;;;;;;4942356;28;20487;-50
2022/03/29 03:44:37;;;;;;;9.70;7.07;;;;;;;;;;4946892;28;20435;-50
2022/03/29 03:47:03;;;;;;;9.17;6.47;;;;;;;;;;4941825;28;20431;-50
2022/03/29 03:49:32;;;;;;;8.40;6.30;;;;;;;;;;4947638;28;20457;-49
2022/03/29 03:51:58;;;;;;;11.40;6.87;;;;;;;;;;4945332;28;20529;-49
2022/03/29 03:54:25;;;;;;;8.77;6.37;;;;;;;;;;4944150;28;20446;-51
2022/03/29 03:56:51;;;;;;;10.33;7.10;;;;;;;;;;4943740;28;20491;-50
2022/03/29 03:59:17;;;;;;;10.10;6.67;;;;;;;;;;4940489;28;20470;-50
2022/03/29 04:01:43;;;;;;;9.17;5.90;;;;;;;;;;4942288;28;20676;-51
2022/03/29 04:04:09;;;;;;;10.17;6.70;;;;;;;;;;4939144;28;20442;-50
2022/03/29 04:06:38;;;;;;;10.50;6.43;;;;;;;;;;4940691;28;20430;-51
2022/03/29 04:09:06;;;;;;;13.47;7.70;;;;;;;;;;4947557;28;20435;-51
2022/03/29 04:11:33;;;;;;;12.13;7.63;;;;;;;;;;4943385;28;20446;-51
2022/03/29 04:13:59;;;;;;;10.13;7.10;;;;;;;;;;4943779;28;20543;-51
2022/03/29 04:16:27;;;;;;;10.87;7.90;;;;;;;;;;4939821;28;20536;-51
2022/03/29 04:18:53;;;;;;;8.87;6.67;;;;;;;;;;4945966;28;20435;-51
2022/03/29 04:21:19;;;;;;;12.50;7.63;;;;;;;;;;4937079;28;20481;-50
2022/03/29 04:23:45;;;;;;;10.17;7.40;;;;;;;;;;4942506;28;20490;-50
2022/03/29 04:26:11;;;;;;;15.53;7.50;;;;;;;;;;4940637;28;20478;-50
2022/03/29 04:28:37;;;;;;;9.97;7.00;;;;;;;;;;4944632;28;20489;-50
2022/03/29 04:31:03;;;;;;;12.20;8.10;;;;;;;;;;4937566;28;20447;-52
2022/03/29 04:33:29;;;;;;;13.03;7.13;;;;;;;;;;4938971;28;20815;-50
2022/03/29 04:35:55;;;;;;;11.80;7.80;;;;;;;;;;4937553;28;20443;-52
2022/03/29 04:38:21;;;;;;;16.43;7.97;;;;;;;;;;4943077;28;20443;-51
2022/03/29 04:40:47;;;;;;;10.40;6.97;;;;;;;;;;4943985;28;20455;-50
2022/03/29 04:43:13;;;;;;;11.80;6.70;;;;;;;;;;4938185;28;20537;-48
2022/03/29 04:45:39;;;;;;;11.33;8.10;;;;;;;;;;4943554;28;21731;-50
2022/03/29 04:48:05;;;;;;;13.50;7.00;;;;;;;;;;4946670;28;20455;-50
2022/03/29 04:50:32;;;;;;;8.27;6.57;;;;;;;;;;4938918;28;20563;-50
2022/03/29 04:52:58;;;;;;;9.93;6.87;;;;;;;;;;4945471;28;20530;-50
2022/03/29 04:55:24;;;;;;;8.47;7.37;;;;;;;;;;4933030;28;20463;-49
2022/03/29 04:57:50;;;;;;;9.23;6.67;;;;;;;;;;4930781;28;20447;-50
2022/03/29 05:00:17;;;;;;;10.50;6.53;;;;;;;;;;4930384;28;20608;-50
2022/03/29 05:02:44;;;;;;;11.10;6.90;;;;;;;;;;4931863;28;20522;-50
2022/03/29 05:05:33;;;;;;;9.67;7.13;;;;;;;;;;4936049;28;20477;-49
2022/03/29 05:08:12;;;;;;;9.27;6.80;;;;;;;;;;4958067;28;20486;-49
2022/03/29 05:10:39;;;;;;;14.00;7.70;;;;;;;;;;4933803;28;20426;-46
2022/03/29 05:13:09;;;;;;;9.50;6.37;;;;;;;;;;4940910;28;20567;-49
2022/03/29 05:15:36;;;;;;;9.27;6.00;;;;;;;;;;4955719;28;20443;-48
2022/03/29 05:18:02;;;;;;;8.60;6.43;;;;;;;;;;4944775;28;20431;-48
2022/03/29 05:20:28;;;;;;;11.60;6.40;;;;;;;;;;4942208;28;20454;-49
2022/03/29 05:22:56;;;;;;;9.13;6.10;;;;;;;;;;4938925;28;21180;-49
2022/03/29 05:25:37;;;;;;;11.68;7.07;;;;;;;;;;4933691;28;20444;-50
2022/03/29 05:28:06;;;;;;;14.70;6.60;;;;;;;;;;4938184;28;20202;-50
2022/03/29 05:30:32;;;;;;;13.43;6.93;;;;;;;;;;4945697;28;20438;-49
2022/03/29 05:33:00;;;;;;;10.90;7.60;;;;;;;;;;4943342;28;20444;-51
2022/03/29 05:35:29;;;;;;;13.77;6.90;;;;;;;;;;4942750;28;20542;-49
2022/03/29 05:37:55;;;;;;;13.87;7.23;;;;;;;;;;4933928;28;20455;-48
2022/03/29 05:40:21;;;;;;;14.13;9.27;;;;;;;;;;4936345;28;20438;-47
2022/03/29 05:42:53;;;;;;;13.53;8.63;;;;;;;;;;4946449;28;20486;-51
2022/03/29 05:45:20;;;;;;;12.93;7.83;;;;;;;;;;4941810;28;20435;-48
2022/03/29 05:50:42;;;;;;;11.10;7.60;;;;;;;;;;4946926;28;20467;-52
2022/03/29 05:53:08;;;;;;;10.60;7.07;;;;;;;;;;4944667;28;20455;-49
2022/03/29 05:55:48;;;;;;;22.53;8.00;;;;;;;;;;4948266;28;20463;-51
2022/03/29 05:58:20;;;;;;;15.60;9.43;;;;;;;;;;4964802;28;20901;-53
2022/03/29 06:01:02;;;;;;;11.67;6.87;;;;;;;;;;4948878;28;20710;-52
2022/03/29 06:03:32;;;;;;;15.23;8.10;;;;;;;;;;4945750;28;20458;-51
2022/03/29 06:05:58;;;;;;;10.93;7.70;;;;;;;;;;4936293;28;20439;-50
2022/03/29 06:08:45;;;;;;;10.17;8.73;;;;;;;;;;4946872;28;20462;-50
2022/03/29 06:11:38;;;;;;;11.83;9.17;;;;;;;;;;4942217;28;20447;-52
2022/03/29 06:14:12;;;;;;;14.13;8.50;;;;;;;;;;4940437;28;20445;-53
2022/03/29 06:16:37;;;;;;;15.30;9.63;;;;;;;;;;4938930;28;20439;-53
2022/03/29 06:19:05;;;;;;;13.33;8.77;;;;;;;;;;4934567;28;20442;-51
2022/03/29 06:21:31;;;;;;;14.70;8.47;;;;;;;;;;4935564;28;20510;-51
2022/03/29 06:23:57;;;;;;;11.63;8.30;;;;;;;;;;4931975;28;20498;-50
2022/03/29 06:26:27;;;;;;;15.53;8.50;;;;;;;;;;4930853;28;21917;-52
2022/03/29 06:31:57;;;;;;;14.83;9.33;;;;;;;;;;4932351;28;21003;-51
2022/03/29 06:34:23;;;;;;;13.80;7.93;;;;;;;;;;4945337;28;20478;-52
2022/03/29 06:36:49;;;;;;;42.93;12.67;;;;;;;;;;4940595;28;20458;-53
2022/03/29 06:39:15;;;;;;;34.43;12.00;;;;;;;;;;4957603;28;20493;-51
2022/03/29 06:41:43;;;;;;;24.83;10.20;;;;;;;;;;4939911;28;20964;-50
2022/03/29 06:44:20;;;;;;;30.53;12.07;;;;;;;;;;4931369;28;20602;-51
2022/03/29 06:46:49;;;;;;;20.37;9.90;;;;;;;;;;4935208;28;21011;-51
2022/03/29 06:49:15;;;;;;;35.93;10.40;;;;;;;;;;4933841;28;20450;-51
2022/03/29 06:51:44;;;;;;;26.50;11.47;;;;;;;;;;4932741;28;20615;-50
2022/03/29 06:54:16;;;;;;;18.90;9.87;;;;;;;;;;4936541;28;20498;-53
2022/03/29 06:56:44;;;;;;;31.83;12.00;;;;;;;;;;4935496;28;20530;-51
2022/03/29 06:59:10;;;;;;;23.33;10.23;;;;;;;;;;4941280;28;20443;-51
2022/03/29 07:01:37;;;;;;;28.40;12.27;;;;;;;;;;4938202;28;20514;-49
2022/03/29 07:04:03;;;;;;;23.07;9.73;;;;;;;;;;4931836;28;20581;-51
2022/03/29 07:06:33;;;;;;;29.77;13.70;;;;;;;;;;4933647;28;20497;-51
2022/03/29 07:11:46;;;;;;;21.40;10.40;;;;;;;;;;4934144;28;20855;-50
2022/03/29 07:14:13;;;;;;;21.70;11.13;;;;;;;;;;4935593;28;20513;-48
2022/03/29 07:16:39;;;;;;;21.30;10.20;;;;;;;;;;4937007;28;20439;-49
2022/03/29 07:19:08;;;;;;;17.40;11.20;;;;;;;;;;4936179;28;20510;-49
2022/03/29 07:21:34;;;;;;;20.27;10.87;;;;;;;;;;4968148;28;20842;-48
2022/03/29 07:24:03;;;;;;;33.90;11.70;;;;;;;;;;4935091;28;20501;-49
2022/03/29 07:26:30;;;;;;;25.50;10.30;;;;;;;;;;4933848;28;20458;-50
2022/03/29 07:29:04;;;;;;;14.40;9.27;;;;;;;;;;4934019;28;20443;-50
2022/03/29 07:31:33;;;;;;;19.87;12.00;;;;;;;;;;4931450;28;20569;-49
2022/03/29 07:33:59;;;;;;;22.73;11.17;;;;;;;;;;4939495;28;20447;-50
2022/03/29 07:36:27;;;;;;;17.17;11.10;;;;;;;;;;4936624;28;20882;-50
2022/03/29 07:38:53;;;;;;;22.90;10.23;;;;;;;;;;4934644;28;20520;-50
2022/03/29 07:41:19;;;;;;;20.23;10.37;;;;;;;;;;4950402;28;20486;-51
2022/03/29 07:43:48;;;;;;;23.13;12.83;;;;;;;;;;4934787;28;20554;-50
2022/03/29 07:46:15;;;;;;;12.03;9.80;;;;;;;;;;4935074;28;20937;-50
2022/03/29 07:48:41;;;;;;;20.20;13.33;;;;;;;;;;4935903;28;20948;-51
2022/03/29 07:51:07;;;;;;;14.90;10.10;;;;;;;;;;4936585;28;20573;-50
2022/03/29 07:53:33;;;;;;;16.13;11.00;;;;;;;;;;4934524;28;20448;-50
2022/03/29 07:56:11;;;;;;;20.80;11.80;;;;;;;;;;4938504;28;20794;-51
2022/03/29 07:58:37;;;;;;;18.87;10.30;;;;;;;;;;4936598;28;20447;-51
2022/03/29 08:01:03;;;;;;;14.33;10.67;;;;;;;;;;4935273;28;20854;-54
2022/03/29 08:03:32;;;;;;;17.13;10.87;;;;;;;;;;4934367;28;21021;-50
2022/03/29 08:05:59;;;;;;;19.30;10.70;;;;;;;;;;4932320;28;20442;-50
2022/03/29 08:08:25;;;;;;;15.87;9.83;;;;;;;;;;4934620;28;20550;-50
2022/03/29 08:10:52;;;;;;;19.53;10.47;;;;;;;;;;4934934;28;20894;-51
2022/03/29 08:13:18;;;;;;;12.90;8.90;;;;;;;;;;4935301;28;20451;-51
2022/03/29 08:15:46;;;;;;;18.77;9.60;;;;;;;;;;4937555;28;20992;-51
2022/03/29 08:18:13;;;;;;;18.47;10.10;;;;;;;;;;4934130;28;20844;-50
2022/03/29 08:20:40;;;;;;;14.40;9.80;;;;;;;;;;4938640;28;20439;-51
2022/03/29 08:23:11;;;;;;;14.53;10.00;;;;;;;;;;4935200;28;20485;-51
2022/03/29 08:25:40;;;;;;;20.83;9.23;;;;;;;;;;4933809;28;20457;-51
2022/03/29 08:28:06;;;;;;;14.00;9.17;;;;;;;;;;4930639;28;20462;-51
2022/03/29 08:30:35;;;;;;;16.07;10.47;;;;;;;;;;4963769;28;20443;-50
2022/03/29 08:33:02;;;;;;;17.43;9.10;;;;;;;;;;4931047;28;21166;-50
2022/03/29 08:35:28;;;;;;;15.07;9.50;;;;;;;;;;4923924;28;20621;-50
2022/03/29 08:37:55;;;;;;;12.77;8.60;;;;;;;;;;4929299;28;20502;-50
2022/03/29 08:40:28;;;;;;;16.13;9.67;;;;;;;;;;4917187;28;21009;-50
2022/03/29 08:42:55;;;;;;;14.53;10.13;;;;;;;;;;4929276;28;21004;-49
2022/03/29 08:45:31;;;;;;;22.80;11.83;;;;;;;;;;4931750;28;20550;-50
2022/03/29 08:47:58;;;;;;;15.07;8.60;;;;;;;;;;4933692;28;20506;-50
2022/03/29 08:50:28;;;;;;;14.43;9.23;;;;;;;;;;4934256;28;20492;-51
2022/03/29 08:52:54;;;;;;;17.20;9.20;;;;;;;;;;4933483;28;20462;-51
2022/03/29 08:55:21;;;;;;;14.10;9.10;;;;;;;;;;4933146;28;20945;-50
2022/03/29 08:57:54;;;;;;;19.13;10.00;;;;;;;;;;4939358;28;20451;-51
2022/03/29 09:00:26;;;;;;;13.80;9.50;;;;;;;;;;4940208;28;20439;-50
2022/03/29 09:02:53;;;;;;;16.87;8.80;;;;;;;;;;4935985;28;20956;-48
2022/03/29 09:05:23;;;;;;;13.77;8.80;;;;;;;;;;4938828;28;20563;-51
2022/03/29 09:07:58;;;;;;;14.83;8.50;;;;;;;;;;4939846;28;20465;-50
2022/03/29 09:10:38;;;;;;;13.70;10.07;;;;;;;;;;4940918;28;20441;-50
2022/03/29 09:13:24;;;;;;;14.43;8.97;;;;;;;;;;4966782;28;20435;-49
2022/03/29 09:15:51;;;;;;;13.50;8.73;;;;;;;;;;4938189;28;20435;-49
2022/03/29 09:18:17;;;;;;;13.37;9.23;;;;;;;;;;4936846;28;20443;-49
2022/03/29 09:20:47;;;;;;;12.70;8.80;;;;;;;;;;4933785;28;20445;-50
2022/03/29 09:23:16;;;;;;;14.70;10.40;;;;;;;;;;4938841;28;20446;-50
2022/03/29 09:25:47;;;;;;;13.93;10.77;;;;;;;;;;4936515;28;20643;-49
2022/03/29 09:28:14;;;;;;;14.50;9.60;;;;;;;;;;4937173;28;20470;-49
2022/03/29 09:30:42;;;;;;;22.80;11.37;;;;;;;;;;4933091;28;20451;-50
2022/03/29 09:33:31;;;;;;;29.13;12.00;;;;;;;;;;4936959;28;20435;-50
2022/03/29 09:36:00;;;;;;;16.43;10.93;;;;;;;;;;4928113;28;20446;-50
2022/03/29 09:38:30;;;;;;;19.50;12.50;;;;;;;;;;4936750;28;20451;-50
2022/03/29 09:40:56;;;;;;;20.90;11.57;;;;;;;;;;4935474;28;20514;-51
2022/03/29 09:43:24;;;;;;;16.30;11.40;;;;;;;;;;4936680;28;20434;-51
2022/03/29 09:45:52;;;;;;;18.87;12.50;;;;;;;;;;4967264;28;20451;-50
2022/03/29 09:48:21;;;;;;;17.80;11.30;;;;;;;;;;4939418;28;20439;-50
2022/03/29 09:50:47;;;;;;;20.03;12.50;;;;;;;;;;4936516;28;20562;-50
2022/03/29 09:53:32;;;;;;;25.00;13.60;;;;;;;;;;4937143;28;20450;-49
2022/03/29 09:55:59;;;;;;;20.83;11.80;;;;;;;;;;4932687;28;21020;-50
2022/03/29 09:58:25;;;;;;;23.90;13.63;;;;;;;;;;4935898;28;20447;-49
2022/03/29 10:00:51;;;;;;;23.93;14.00;;;;;;;;;;4935141;28;20438;-49
2022/03/29 10:03:17;;;;;;;17.13;11.53;;;;;;;;;;4930849;28;21056;-49
2022/03/29 10:05:45;;;;;;;20.77;11.13;;;;;;;;;;4937954;28;20443;-50
2022/03/29 10:11:03;;;;;;;18.03;13.20;;;;;;;;;;4930904;28;21216;-51
2022/03/29 10:13:30;;;;;;;15.63;11.13;;;;;;;;;;4934978;28;20455;-50
2022/03/29 10:15:59;;;;;;;18.63;11.63;;;;;;;;;;4935022;28;20450;-50
2022/03/29 10:18:26;;;;;;;16.77;10.97;;;;;;;;;;4933087;28;20458;-50
2022/03/29 10:20:54;;;;;;;16.37;10.83;;;;;;;;;;4935416;28;20455;-50
2022/03/29 10:23:23;;;;;;;18.10;11.50;;;;;;;;;;4929879;28;20457;-51
2022/03/29 10:25:54;;;;;;;17.53;11.20;;;;;;;;;;4931635;28;20432;-51
2022/03/29 10:28:21;;;;;;;19.20;11.60;;;;;;;;;;4932969;28;20999;-50
2022/03/29 10:30:47;;;;;;;18.33;11.07;;;;;;;;;;4933593;28;20602;-50
2022/03/29 10:33:20;;;;;;;19.33;11.97;;;;;;;;;;4931914;28;20517;-50
2022/03/29 10:36:05;;;;;;;16.80;11.23;;;;;;;;;;4936194;28;20447;-49
2022/03/29 10:38:47;;;;;;;17.97;11.50;;;;;;;;;;4939298;28;20475;-52
2022/03/29 10:41:35;;;;;;;18.93;11.50;;;;;;;;;;4935320;28;20479;-51
2022/03/29 10:44:05;;;;;;;19.70;11.70;;;;;;;;;;4932662;28;20447;-48
2022/03/29 10:46:46;;;;;;;17.33;12.30;;;;;;;;;;4935929;28;20443;-50
2022/03/29 10:49:15;;;;;;;14.30;10.80;;;;;;;;;;4949016;28;20443;-50
2022/03/29 10:51:41;;;;;;;13.40;10.10;;;;;;;;;;4937265;28;20498;-50
2022/03/29 10:54:42;;;;;;;16.80;11.60;;;;;;;;;;4935413;28;24007;-51
2022/03/29 10:57:32;;;;;;;17.53;11.00;;;;;;;;;;4913868;29;20716;-52
2022/03/29 11:00:08;;;;;;;16.30;11.30;;;;;;;;;;4934845;28;20816;-49
2022/03/29 11:02:35;;;;;;;16.03;10.80;;;;;;;;;;4932237;28;20501;-50
2022/03/29 11:05:12;;;;;;;17.13;10.67;;;;;;;;;;4931057;28;20440;-50
2022/03/29 11:07:53;;;;;;;15.90;10.27;;;;;;;;;;4932086;28;20469;-52
2022/03/29 11:10:20;;;;;;;15.90;10.70;;;;;;;;;;4929832;28;20454;-48
2022/03/29 11:12:49;;;;;;;14.67;10.00;;;;;;;;;;4935641;28;20439;-50
2022/03/29 11:15:27;;;;;;;15.77;10.20;;;;;;;;;;4932646;28;20507;-50
2022/03/29 11:17:56;;;;;;;11.87;9.60;;;;;;;;;;4939749;28;20461;-50
2022/03/29 11:20:29;;;;;;;16.70;10.13;;;;;;;;;;4940292;28;20430;-50
2022/03/29 11:22:57;;;;;;;12.60;10.13;;;;;;;;;;4937351;28;20482;-50
2022/03/29 11:25:23;;;;;;;15.17;10.20;;;;;;;;;;4938813;28;20453;-50
2022/03/29 11:27:49;;;;;;;16.57;10.90;;;;;;;;;;4940939;28;20446;-51
2022/03/29 11:30:15;;;;;;;15.73;10.17;;;;;;;;;;4940191;28;20427;-53
2022/03/29 11:32:42;;;;;;;18.23;12.07;;;;;;;;;;4940222;28;20447;-47
2022/03/29 11:35:09;;;;;;;16.90;11.20;;;;;;;;;;4938668;28;20438;-49
2022/03/29 11:37:40;;;;;;;17.57;12.90;;;;;;;;;;4935235;28;20477;-48
2022/03/29 11:40:07;;;;;;;22.80;13.70;;;;;;;;;;4940503;28;20447;-49
2022/03/29 11:42:44;;;;;;;24.27;13.87;;;;;;;;;;4937430;28;20518;-51
2022/03/29 11:45:11;;;;;;;21.80;13.87;;;;;;;;;;4924082;28;21049;-50
2022/03/29 11:47:38;;;;;;;20.33;14.40;;;;;;;;;;4941108;28;20495;-51
2022/03/29 11:50:05;;;;;;;20.30;12.80;;;;;;;;;;4939007;28;20478;-48
2022/03/29 11:52:34;;;;;;;21.70;14.83;;;;;;;;;;4949364;28;20528;-48
2022/03/29 11:55:00;;;;;;;19.03;13.10;;;;;;;;;;4927270;28;20439;-48
2022/03/29 11:57:27;;;;;;;26.30;14.13;;;;;;;;;;4935195;28;21142;-48
2022/03/29 11:59:54;;;;;;;18.63;14.00;;;;;;;;;;4933108;28;20642;-49
2022/03/29 12:02:22;;;;;;;21.03;15.17;;;;;;;;;;4932827;28;20482;-49
2022/03/29 12:05:19;;;;;;;19.33;12.70;;;;;;;;;;4947270;28;20447;-51
2022/03/29 12:07:46;;;;;;;16.73;12.40;;;;;;;;;;4939011;28;20474;-49
2022/03/29 12:10:13;;;;;;;20.10;12.73;;;;;;;;;;4936327;28;20474;-49
2022/03/29 12:12:39;;;;;;;18.77;13.00;;;;;;;;;;4930873;28;20443;-48
2022/03/29 12:15:29;;;;;;;19.27;13.37;;;;;;;;;;4932662;28;20451;-50
2022/03/29 12:20:47;;;;;;;20.73;14.23;;;;;;;;;;4934404;28;20433;-48
2022/03/29 12:23:23;;;;;;;18.07;13.53;;;;;;;;;;4938135;28;20895;-49
2022/03/29 12:25:49;;;;;;;20.30;12.87;;;;;;;;;;4936970;28;20447;-48
2022/03/29 12:28:16;;;;;;;22.63;13.10;;;;;;;;;;4932593;28;20501;-48
2022/03/29 12:30:42;;;;;;;21.27;14.43;;;;;;;;;;4934729;28;20815;-49
2022/03/29 12:33:19;;;;;;;22.97;13.23;;;;;;;;;;4935973;28;20439;-51
2022/03/29 12:35:52;;;;;;;17.80;13.30;;;;;;;;;;4949080;28;20455;-50
2022/03/29 12:38:24;;;;;;;22.57;12.77;;;;;;;;;;4927120;29;20570;-50
2022/03/29 12:40:57;;;;;;;17.67;11.50;;;;;;;;;;4934820;28;20443;-49
2022/03/29 12:43:27;;;;;;;17.63;14.13;;;;;;;;;;4938269;28;20459;-48
2022/03/29 12:45:53;;;;;;;20.83;13.60;;;;;;;;;;4939537;28;20439;-48
2022/03/29 12:48:22;;;;;;;19.30;12.77;;;;;;;;;;4940702;28;21442;-48
2022/03/29 12:50:48;;;;;;;18.53;12.50;;;;;;;;;;4938225;28;20502;-50
2022/03/29 12:53:16;;;;;;;17.13;11.40;;;;;;;;;;4936969;28;20436;-51
2022/03/29 12:56:09;;;;;;;17.30;11.90;;;;;;;;;;4916120;28;20493;-54
2022/03/29 12:58:37;;;;;;;15.90;11.63;;;;;;;;;;4932710;28;20447;-51
2022/03/29 13:01:04;;;;;;;20.20;11.93;;;;;;;;;;4923484;28;21300;-50
2022/03/29 13:03:49;;;;;;;19.53;12.83;;;;;;;;;;4935472;28;20478;-52
2022/03/29 13:06:18;;;;;;;19.53;12.80;;;;;;;;;;4935767;28;20454;-50
2022/03/29 13:08:46;;;;;;;18.87;13.57;;;;;;;;;;4938744;28;20474;-51
2022/03/29 13:11:18;;;;;;;18.97;14.40;;;;;;;;;;4967718;28;20447;-49
2022/03/29 13:13:44;;;;;;;19.53;13.00;;;;;;;;;;4932870;28;20526;-50
2022/03/29 13:16:19;;;;;;;17.17;13.63;;;;;;;;;;4938123;28;20453;-49
2022/03/29 13:18:49;;;;;;;21.23;14.53;;;;;;;;;;4938372;28;20902;-51
2022/03/29 13:21:19;;;;;;;23.03;13.23;;;;;;;;;;4937479;28;20512;-50
2022/03/29 13:23:46;;;;;;;20.97;11.73;;;;;;;;;;4937625;28;20447;-50
2022/03/29 13:26:13;;;;;;;21.93;13.00;;;;;;;;;;4939963;28;20635;-51
2022/03/29 13:28:39;;;;;;;21.40;12.53;;;;;;;;;;4937902;28;20582;-50
2022/03/29 13:31:06;;;;;;;21.23;12.90;;;;;;;;;;4935603;28;20514;-50
2022/03/29 13:33:32;;;;;;;16.60;11.70;;;;;;;;;;4937521;28;20450;-50
2022/03/29 13:36:11;;;;;;;18.40;12.03;;;;;;;;;;4937678;28;20509;-51
2022/03/29 13:38:38;;;;;;;24.77;12.30;;;;;;;;;;4937475;28;20453;-50
2022/03/29 13:41:06;;;;;;;22.03;14.00;;;;;;;;;;4933936;28;20439;-51
2022/03/29 13:43:41;;;;;;;27.90;12.73;;;;;;;;;;4936978;28;20455;-51
2022/03/29 13:46:20;;;;;;;24.93;13.03;;;;;;;;;;4932927;28;20806;-51
2022/03/29 13:48:47;;;;;;;15.87;12.43;;;;;;;;;;4938653;28;20504;-51
2022/03/29 13:51:16;;;;;;;17.60;12.03;;;;;;;;;;4938124;28;20461;-51
2022/03/29 13:53:46;;;;;;;17.70;11.03;;;;;;;;;;4939666;28;20467;-51
2022/03/29 13:56:13;;;;;;;19.53;13.43;;;;;;;;;;4934264;28;20542;-50
2022/03/29 13:58:39;;;;;;;20.43;13.00;;;;;;;;;;4935171;28;20447;-51
2022/03/29 14:01:17;;;;;;;18.03;12.50;;;;;;;;;;4932962;28;20541;-51
2022/03/29 14:03:46;;;;;;;24.43;12.13;;;;;;;;;;4939146;28;20529;-51
2022/03/29 14:06:20;;;;;;;20.60;12.73;;;;;;;;;;4937223;28;20485;-51
2022/03/29 14:08:48;;;;;;;24.10;12.90;;;;;;;;;;4939745;28;20561;-51
2022/03/29 14:11:21;;;;;;;21.33;12.80;;;;;;;;;;4936369;28;20439;-52
2022/03/29 14:13:47;;;;;;;21.10;12.57;;;;;;;;;;4939098;28;20501;-50
2022/03/29 14:16:23;;;;;;;26.30;14.57;;;;;;;;;;4933528;28;20428;-51
2022/03/29 14:18:49;;;;;;;20.70;13.47;;;;;;;;;;4928876;28;20442;-50
2022/03/29 14:21:28;;;;;;;21.40;12.23;;;;;;;;;;4928302;28;20474;-50
2022/03/29 14:23:56;;;;;;;19.30;13.77;;;;;;;;;;4928102;28;20577;-50
2022/03/29 14:26:22;;;;;;;22.23;12.83;;;;;;;;;;4931461;28;20498;-50
2022/03/29 14:28:53;;;;;;;18.23;12.07;;;;;;;;;;4930952;28;21070;-51
2022/03/29 14:31:19;;;;;;;25.70;11.93;;;;;;;;;;4923912;28;20469;-50
2022/03/29 14:33:51;;;;;;;18.37;11.67;;;;;;;;;;4930332;28;20447;-51
2022/03/29 14:36:18;;;;;;;21.00;12.67;;;;;;;;;;4934456;28;20431;-51
2022/03/29 14:38:47;;;;;;;21.60;12.30;;;;;;;;;;4935673;28;20488;-50
2022/03/29 14:41:28;;;;;;;21.63;13.13;;;;;;;;;;4932298;28;20437;-51
2022/03/29 14:43:57;;;;;;;20.00;13.47;;;;;;;;;;4931737;28;20541;-51
2022/03/29 14:46:23;;;;;;;22.10;13.33;;;;;;;;;;4929589;28;20574;-55
2022/03/29 14:48:50;;;;;;;21.97;14.30;;;;;;;;;;4937179;28;20443;-51
2022/03/29 14:51:16;;;;;;;24.80;14.23;;;;;;;;;;4934393;28;20432;-50
2022/03/29 14:53:44;;;;;;;21.40;13.00;;;;;;;;;;4939284;28;20442;-52
2022/03/29 14:56:17;;;;;;;21.00;12.70;;;;;;;;;;4935321;28;21040;-51